createdAt,value
2023-10-14T00:02:16.639Z,67
2023-10-14T00:04:47.224Z,67
2023-10-14T00:07:17.564Z,67
2023-10-14T00:09:48.106Z,67
2023-10-14T00:12:18.612Z,67
2023-10-14T00:14:52.597Z,67
2023-10-14T00:17:23.433Z,67
2023-10-14T00:19:54.051Z,67
2023-10-14T00:22:25.032Z,66
2023-10-14T00:24:54.336Z,66
2023-10-14T00:27:28.234Z,66
2023-10-14T00:29:59.225Z,67
2023-10-14T00:32:30.327Z,67
2023-10-14T00:35:01.643Z,67
2023-10-14T00:37:32.641Z,67
2023-10-14T00:40:03.577Z,67
2023-10-14T00:42:34.464Z,67
2023-10-14T00:45:05.010Z,67
2023-10-14T00:47:35.305Z,67
2023-10-14T00:50:06.504Z,67
2023-10-14T00:52:36.870Z,68
2023-10-14T00:55:08.200Z,68
2023-10-14T00:57:38.667Z,69
2023-10-14T01:00:09.749Z,69
2023-10-14T01:02:40.401Z,69
2023-10-14T01:05:10.929Z,69
2023-10-14T01:07:42.291Z,69
2023-10-14T01:10:14.031Z,69
2023-10-14T01:12:44.845Z,68
2023-10-14T01:15:15.940Z,68
2023-10-14T01:17:47.093Z,68
2023-10-14T01:20:17.964Z,68
2023-10-14T01:22:49.114Z,68
2023-10-14T01:25:20.116Z,68
2023-10-14T01:27:50.420Z,68
2023-10-14T01:30:21.512Z,68
2023-10-14T01:32:52.521Z,68
2023-10-14T01:35:22.559Z,68
2023-10-14T01:37:53.407Z,68
2023-10-14T01:40:24.237Z,68
2023-10-14T01:42:55.632Z,68
2023-10-14T01:45:26.467Z,68
2023-10-14T01:47:57.543Z,68
2023-10-14T01:50:28.328Z,68
2023-10-14T01:52:58.937Z,68
2023-10-14T01:55:29.574Z,68
2023-10-14T01:58:00.404Z,68
2023-10-14T02:00:30.585Z,68
2023-10-14T02:03:01.461Z,68
2023-10-14T02:05:32.699Z,68
2023-10-14T02:08:03.841Z,68
2023-10-14T02:10:35.117Z,67
2023-10-14T02:13:06.518Z,67
2023-10-14T02:15:37.728Z,68
2023-10-14T02:18:07.041Z,67
2023-10-14T02:20:37.648Z,68
2023-10-14T02:23:08.895Z,68
2023-10-14T02:25:40.182Z,68
2023-10-14T02:28:10.675Z,68
2023-10-14T02:30:41.446Z,68
2023-10-14T02:33:12.282Z,68
2023-10-14T02:35:43.471Z,68
2023-10-14T02:38:14.094Z,67
2023-10-14T02:40:45.207Z,67
2023-10-14T02:43:15.837Z,67
2023-10-14T02:45:46.447Z,67
2023-10-14T02:48:17.188Z,67
2023-10-14T02:50:47.698Z,67
2023-10-14T02:53:18.323Z,66
2023-10-14T02:55:48.864Z,66
2023-10-14T02:58:19.529Z,66
2023-10-14T03:00:50.385Z,66
2023-10-14T03:03:21.634Z,66
2023-10-14T03:05:52.874Z,66
2023-10-14T03:08:23.637Z,66
2023-10-14T03:10:54.215Z,66
2023-10-14T03:13:24.926Z,66
2023-10-14T03:15:55.638Z,66
2023-10-14T03:18:26.210Z,66
2023-10-14T03:20:56.882Z,66
2023-10-14T03:23:27.465Z,66
2023-10-14T03:25:57.945Z,65
2023-10-14T03:28:28.807Z,66
2023-10-14T03:30:59.923Z,66
2023-10-14T03:33:30.388Z,66
2023-10-14T03:36:01.344Z,66
2023-10-14T03:38:32.480Z,66
2023-10-14T03:41:04.022Z,66
2023-10-14T03:43:35.408Z,66
2023-10-14T03:46:06.607Z,66
2023-10-14T03:48:37.314Z,66
2023-10-14T03:51:09.119Z,65
2023-10-14T03:53:39.452Z,65
2023-10-14T03:56:10.071Z,66
2023-10-14T03:58:41.118Z,66
2023-10-14T04:01:11.885Z,65
2023-10-14T04:03:42.429Z,65
2023-10-14T04:06:13.222Z,65
2023-10-14T04:08:44.277Z,64
2023-10-14T04:11:14.635Z,64
2023-10-14T04:13:45.176Z,64
2023-10-14T04:16:16.743Z,65
2023-10-14T04:18:47.661Z,65
2023-10-14T04:21:17.792Z,65
2023-10-14T04:23:48.928Z,65
2023-10-14T04:26:20.376Z,66
2023-10-14T04:28:51.865Z,66
2023-10-14T04:31:22.892Z,66
2023-10-14T04:33:53.342Z,67
2023-10-14T04:36:23.864Z,67
2023-10-14T04:38:54.988Z,67
2023-10-14T04:41:25.981Z,68
2023-10-14T04:43:56.940Z,68
2023-10-14T04:46:27.484Z,68
2023-10-14T04:48:58.393Z,68
2023-10-14T04:51:29.356Z,68
2023-10-14T04:53:59.509Z,68
2023-10-14T04:56:31.558Z,68
2023-10-14T04:59:01.908Z,69
2023-10-14T05:01:32.861Z,69
2023-10-14T05:04:03.466Z,70
2023-10-14T05:06:34.000Z,70
2023-10-14T05:09:04.582Z,71
2023-10-14T05:11:35.228Z,70
2023-10-14T05:14:06.666Z,71
2023-10-14T05:16:37.267Z,71
2023-10-14T05:19:08.006Z,71
2023-10-14T05:21:38.427Z,71
2023-10-14T05:24:09.509Z,71
2023-10-14T05:26:40.057Z,71
2023-10-14T05:29:11.311Z,71
2023-10-14T05:31:41.777Z,70
2023-10-14T05:34:12.426Z,70
2023-10-14T05:36:42.995Z,70
2023-10-14T05:39:14.082Z,70
2023-10-14T05:41:45.105Z,70
2023-10-14T05:44:16.138Z,70
2023-10-14T05:46:47.681Z,70
2023-10-14T05:49:18.955Z,69
2023-10-14T05:51:49.971Z,69
2023-10-14T05:54:20.524Z,69
2023-10-14T05:56:50.643Z,69
2023-10-14T05:59:21.824Z,68
2023-10-14T06:01:52.047Z,68
2023-10-14T06:04:21.345Z,69
2023-10-14T06:06:51.655Z,68
2023-10-14T06:09:23.312Z,68
2023-10-14T06:11:54.306Z,68
2023-10-14T06:14:26.279Z,68
2023-10-14T06:16:57.777Z,68
2023-10-14T06:19:28.981Z,68
2023-10-14T06:21:59.821Z,68
2023-10-14T06:24:30.016Z,68
2023-10-14T06:27:00.546Z,67
2023-10-14T06:29:31.197Z,68
2023-10-14T06:32:13.027Z,67
2023-10-14T06:34:32.123Z,67
2023-10-14T06:37:02.908Z,67
2023-10-14T06:39:33.428Z,67
2023-10-14T06:42:04.288Z,67
2023-10-14T06:44:34.780Z,67
2023-10-14T06:47:05.364Z,66
2023-10-14T06:49:36.028Z,66
2023-10-14T06:52:07.038Z,66
2023-10-14T06:54:37.416Z,66
2023-10-14T06:57:08.162Z,66
2023-10-14T06:59:39.214Z,66
2023-10-14T07:02:09.371Z,65
2023-10-14T07:04:40.637Z,65
2023-10-14T07:07:12.697Z,65
2023-10-14T07:09:42.178Z,64
2023-10-14T07:12:13.020Z,64
2023-10-14T07:14:44.263Z,64
2023-10-14T07:17:13.322Z,64
2023-10-14T07:19:44.035Z,64
2023-10-14T07:22:15.192Z,64
2023-10-14T07:24:46.182Z,64
2023-10-14T07:27:16.885Z,64
2023-10-14T07:29:47.764Z,63
2023-10-14T07:32:18.607Z,64
2023-10-14T07:34:50.098Z,63
2023-10-14T07:37:21.132Z,63
2023-10-14T07:39:51.605Z,64
2023-10-14T07:42:23.455Z,64
2023-10-14T07:44:53.884Z,64
2023-10-14T07:49:55.631Z,63
2023-10-14T07:52:26.584Z,63
2023-10-14T07:54:57.351Z,63
2023-10-14T07:57:28.363Z,63
2023-10-14T07:59:59.004Z,63
2023-10-14T08:02:28.019Z,62
2023-10-14T08:04:58.971Z,62
2023-10-14T08:07:30.583Z,62
2023-10-14T08:10:01.263Z,62
2023-10-14T08:12:30.621Z,61
2023-10-14T08:15:02.149Z,61
2023-10-14T08:17:32.441Z,61
2023-10-14T08:20:02.944Z,61
2023-10-14T08:22:33.572Z,60
2023-10-14T08:25:04.654Z,59
2023-10-14T08:27:35.387Z,60
2023-10-14T08:30:05.715Z,60
2023-10-14T08:32:34.787Z,59
2023-10-14T08:35:05.647Z,59
2023-10-14T08:37:36.699Z,58
2023-10-14T08:40:07.366Z,58
2023-10-14T08:42:37.778Z,58
2023-10-14T08:45:09.029Z,58
2023-10-14T08:47:40.659Z,57
2023-10-14T08:50:11.087Z,57
2023-10-14T08:52:42.102Z,56
2023-10-14T08:55:13.487Z,57
2023-10-14T08:57:43.588Z,57
2023-10-14T09:00:14.249Z,57
2023-10-14T09:02:44.603Z,56
2023-10-14T09:05:15.318Z,56
2023-10-14T09:07:45.952Z,57
2023-10-14T09:10:16.914Z,55
2023-10-14T09:12:47.756Z,55
2023-10-14T09:15:18.873Z,55
2023-10-14T09:17:49.317Z,54
2023-10-14T09:20:19.844Z,53
2023-10-14T09:22:50.665Z,53
2023-10-14T09:25:22.066Z,53
2023-10-14T09:27:52.978Z,52
2023-10-14T09:30:23.778Z,51
2023-10-14T09:32:55.028Z,52
2023-10-14T09:35:26.071Z,51
2023-10-14T09:37:56.945Z,51
2023-10-14T09:40:27.633Z,51
2023-10-14T09:42:59.701Z,50
2023-10-14T09:45:30.258Z,50
2023-10-14T09:48:00.822Z,50
2023-10-14T09:50:39.139Z,48
2023-10-14T09:53:10.155Z,49
2023-10-14T09:55:40.636Z,49
2023-10-14T09:58:11.198Z,49
2023-10-14T10:00:41.785Z,48
2023-10-14T10:03:12.506Z,47
2023-10-14T10:05:43.260Z,48
2023-10-14T10:08:13.666Z,48
2023-10-14T10:10:44.518Z,47
2023-10-14T10:13:13.706Z,46
2023-10-14T10:15:44.108Z,47
2023-10-14T10:18:14.886Z,47
2023-10-14T10:20:45.171Z,47
2023-10-14T10:23:16.053Z,47
2023-10-14T10:25:46.657Z,47
2023-10-14T10:28:18.051Z,46
2023-10-14T10:30:49.569Z,46
2023-10-14T10:33:20.066Z,46
2023-10-14T10:35:51.025Z,45
2023-10-14T10:38:21.756Z,45
2023-10-14T10:40:52.737Z,45
2023-10-14T10:43:23.797Z,45
2023-10-14T10:45:54.690Z,45
2023-10-14T10:48:25.401Z,45
2023-10-14T10:50:56.151Z,46
2023-10-14T10:53:27.617Z,45
2023-10-14T10:55:58.551Z,44
2023-10-14T10:58:28.964Z,45
2023-10-14T11:00:59.486Z,44
2023-10-14T11:03:30.276Z,44
2023-10-14T11:06:01.493Z,45
2023-10-14T11:08:32.335Z,45
2023-10-14T11:11:03.279Z,44
2023-10-14T11:13:34.357Z,44
2023-10-14T11:16:05.330Z,44
2023-10-14T11:18:39.156Z,42
2023-10-14T11:21:07.054Z,43
2023-10-14T11:23:38.101Z,41
2023-10-14T11:26:09.000Z,43
2023-10-14T11:28:39.824Z,42
2023-10-14T11:31:11.421Z,42
2023-10-14T11:33:42.515Z,42
2023-10-14T11:36:13.472Z,41
2023-10-14T11:38:44.565Z,41
2023-10-14T11:41:15.755Z,43
2023-10-14T11:43:46.152Z,40
2023-10-14T11:46:16.816Z,39
2023-10-14T11:48:47.304Z,41
2023-10-14T11:51:17.916Z,40
2023-10-14T11:53:48.689Z,40
2023-10-14T11:56:19.809Z,40
2023-10-14T11:58:51.288Z,40
2023-10-14T12:01:22.104Z,41
2023-10-14T12:03:53.459Z,40
2023-10-14T12:06:24.417Z,40
2023-10-14T12:08:55.529Z,41
2023-10-14T12:11:26.108Z,42
2023-10-14T12:13:56.616Z,40
2023-10-14T12:16:27.099Z,40
2023-10-14T12:18:57.652Z,40
2023-10-14T12:21:28.795Z,40
2023-10-14T12:23:59.952Z,40
2023-10-14T12:26:38.581Z,40
2023-10-14T12:29:01.933Z,40
2023-10-14T12:31:33.118Z,39
2023-10-14T12:34:04.005Z,40
2023-10-14T12:36:35.166Z,41
2023-10-14T12:39:06.142Z,41
2023-10-14T12:41:37.179Z,41
2023-10-14T12:44:11.092Z,40
2023-10-14T12:46:42.085Z,39
2023-10-14T12:49:13.183Z,41
2023-10-14T12:51:44.007Z,40
2023-10-14T12:54:14.932Z,41
2023-10-14T12:56:45.723Z,39
2023-10-14T12:59:16.514Z,41
2023-10-14T13:01:47.634Z,41
2023-10-14T13:04:18.742Z,40
2023-10-14T13:06:49.129Z,41
2023-10-14T13:09:20.186Z,39
2023-10-14T13:11:51.344Z,39
2023-10-14T13:14:22.484Z,40
2023-10-14T13:16:53.607Z,39
2023-10-14T13:19:24.533Z,38
2023-10-14T13:21:55.649Z,38
2023-10-14T13:24:26.923Z,39
2023-10-14T13:26:57.884Z,41
2023-10-14T13:29:28.860Z,39
2023-10-14T13:31:59.906Z,38
2023-10-14T13:34:30.772Z,40
2023-10-14T13:37:01.823Z,39
2023-10-14T13:39:32.728Z,40
2023-10-14T13:42:03.771Z,42
2023-10-14T13:44:34.262Z,39
2023-10-14T13:47:05.394Z,39
2023-10-14T13:49:36.009Z,40
2023-10-14T13:52:06.811Z,41
2023-10-14T13:54:37.983Z,40
2023-10-14T13:57:09.066Z,41
2023-10-14T13:59:39.732Z,41
2023-10-14T14:02:10.500Z,40
2023-10-14T14:04:41.355Z,40
2023-10-14T14:07:12.256Z,40
2023-10-14T14:09:43.214Z,40
2023-10-14T14:12:14.228Z,40
2023-10-14T14:14:45.286Z,40
2023-10-14T14:17:16.332Z,41
2023-10-14T14:19:46.922Z,40
2023-10-14T14:22:17.890Z,39
2023-10-14T14:24:48.942Z,41
2023-10-14T14:27:19.789Z,40
2023-10-14T14:29:50.495Z,41
2023-10-14T14:32:21.181Z,42
2023-10-14T14:34:52.069Z,40
2023-10-14T14:37:23.454Z,40
2023-10-14T14:39:54.500Z,41
2023-10-14T14:42:25.217Z,41
2023-10-14T14:44:56.362Z,42
2023-10-14T14:47:27.390Z,42
2023-10-14T14:49:58.265Z,42
2023-10-14T14:52:29.573Z,43
2023-10-14T14:55:00.834Z,43
2023-10-14T14:57:31.807Z,43
2023-10-14T15:00:02.536Z,43
2023-10-14T15:02:33.436Z,43
2023-10-14T15:05:04.469Z,43
2023-10-14T15:07:35.388Z,44
2023-10-14T15:10:06.333Z,44
2023-10-14T15:12:37.429Z,44
2023-10-14T15:15:09.419Z,45
2023-10-14T15:17:38.517Z,45
2023-10-14T15:20:08.839Z,46
2023-10-14T15:22:40.702Z,45
2023-10-14T15:25:09.788Z,45
2023-10-14T15:27:40.249Z,45
2023-10-14T15:30:10.372Z,45
2023-10-14T15:32:41.181Z,46
2023-10-14T15:35:12.062Z,46
2023-10-14T15:37:44.439Z,47
2023-10-14T15:40:12.099Z,48
2023-10-14T15:42:42.743Z,46
2023-10-14T15:45:12.981Z,47
2023-10-14T15:47:43.618Z,48
2023-10-14T15:50:14.147Z,47
2023-10-14T15:52:44.371Z,48
2023-10-14T15:55:13.498Z,48
2023-10-14T15:57:44.243Z,48
2023-10-14T16:00:15.384Z,49
2023-10-14T16:02:46.194Z,49
2023-10-14T16:05:16.941Z,49
2023-10-14T16:07:47.712Z,49
2023-10-14T16:10:18.888Z,49
2023-10-14T16:12:49.759Z,50
2023-10-14T16:15:20.843Z,49
2023-10-14T16:17:49.734Z,49
2023-10-14T16:20:21.537Z,50
2023-10-14T16:22:52.507Z,50
2023-10-14T16:25:23.369Z,51
2023-10-14T16:27:53.972Z,50
2023-10-14T16:30:25.030Z,51
2023-10-14T16:32:55.961Z,51
2023-10-14T16:35:26.803Z,52
2023-10-14T16:37:57.923Z,52
2023-10-14T16:40:29.248Z,52
2023-10-14T16:42:59.991Z,52
2023-10-14T16:45:30.256Z,53
2023-10-14T16:48:01.377Z,53
2023-10-14T16:50:30.509Z,54
2023-10-14T16:53:01.099Z,54
2023-10-14T16:55:32.002Z,55
2023-10-14T16:58:02.501Z,55
2023-10-14T17:00:33.369Z,54
2023-10-14T17:03:04.208Z,55
2023-10-14T17:05:34.625Z,55
2023-10-14T17:08:05.719Z,55
2023-10-14T17:10:35.167Z,56
2023-10-14T17:13:05.450Z,56
2023-10-14T17:15:36.358Z,57
2023-10-14T17:18:07.283Z,56
2023-10-14T17:20:38.220Z,57
2023-10-14T17:23:08.474Z,57
2023-10-14T17:25:39.289Z,57
2023-10-14T17:28:10.354Z,57
2023-10-14T17:30:43.234Z,57
2023-10-14T17:33:14.223Z,57
2023-10-14T17:35:45.060Z,58
2023-10-14T17:38:16.147Z,58
2023-10-14T17:40:47.046Z,58
2023-10-14T17:43:17.897Z,59
2023-10-14T17:45:48.906Z,59
2023-10-14T17:48:20.028Z,59
2023-10-14T17:50:50.879Z,59
2023-10-14T17:53:21.440Z,59
2023-10-14T17:55:52.202Z,59
2023-10-14T17:58:23.037Z,59
2023-10-14T18:00:53.902Z,59
2023-10-14T18:03:24.497Z,59
2023-10-14T18:05:55.437Z,59
2023-10-14T18:08:26.311Z,60
2023-10-14T18:10:57.143Z,60
2023-10-14T18:13:28.167Z,60
2023-10-14T18:15:58.632Z,60
2023-10-14T18:18:29.467Z,61
2023-10-14T18:21:00.378Z,61
2023-10-14T18:23:30.705Z,61
2023-10-14T18:26:01.211Z,61
2023-10-14T18:28:31.845Z,61
2023-10-14T18:31:02.948Z,62
2023-10-14T18:33:33.897Z,61
2023-10-14T18:36:04.765Z,61
2023-10-14T18:38:35.666Z,61
2023-10-14T18:41:06.852Z,62
2023-10-14T18:43:37.705Z,62
2023-10-14T18:46:08.926Z,62
2023-10-14T18:48:39.854Z,62
2023-10-14T18:51:10.661Z,62
2023-10-14T18:53:41.381Z,62
2023-10-14T18:56:12.238Z,62
2023-10-14T18:58:43.146Z,63
2023-10-14T19:01:13.987Z,63
2023-10-14T19:03:44.847Z,63
2023-10-14T19:06:15.902Z,63
2023-10-14T19:08:46.526Z,63
2023-10-14T19:11:15.385Z,63
2023-10-14T19:13:46.196Z,63
2023-10-14T19:16:16.982Z,63
2023-10-14T19:18:47.680Z,63
2023-10-14T19:21:18.355Z,63
2023-10-14T19:23:48.617Z,63
2023-10-14T19:26:19.564Z,63
2023-10-14T19:28:50.342Z,63
2023-10-14T19:31:21.114Z,63
2023-10-14T19:33:51.706Z,63
2023-10-14T19:36:22.420Z,63
2023-10-14T19:38:54.020Z,63
2023-10-14T19:41:25.177Z,63
2023-10-14T19:43:55.997Z,62
2023-10-14T19:46:26.633Z,62
2023-10-14T19:48:57.367Z,62
2023-10-14T19:51:26.212Z,62
2023-10-14T19:53:57.187Z,63
2023-10-14T19:56:28.046Z,62
2023-10-14T19:58:59.305Z,62
2023-10-14T20:01:30.074Z,63
2023-10-14T20:04:00.853Z,63
2023-10-14T20:06:31.487Z,63
2023-10-14T20:09:02.015Z,63
2023-10-14T20:11:34.288Z,63
2023-10-14T20:14:03.409Z,63
2023-10-14T20:16:34.086Z,63
2023-10-14T20:19:04.742Z,63
2023-10-14T20:21:35.661Z,64
2023-10-14T20:24:06.653Z,64
2023-10-14T20:26:37.602Z,64
2023-10-14T20:29:08.601Z,64
2023-10-14T20:31:39.655Z,63
2023-10-14T20:34:10.529Z,64
2023-10-14T20:36:41.309Z,64
2023-10-14T20:39:12.338Z,64
2023-10-14T20:41:43.780Z,64
2023-10-14T20:44:12.607Z,64
2023-10-14T20:46:41.530Z,63
2023-10-14T20:49:12.322Z,64
2023-10-14T20:51:41.183Z,64
2023-10-14T20:54:12.001Z,64
2023-10-14T20:56:43.066Z,64
2023-10-14T20:59:13.849Z,64
2023-10-14T21:04:20.049Z,64
2023-10-14T21:06:48.623Z,65
2023-10-14T21:09:19.778Z,65
2023-10-14T21:11:51.221Z,65
2023-10-14T21:14:22.061Z,65
2023-10-14T21:16:52.669Z,65
2023-10-14T21:19:23.979Z,65
2023-10-14T21:21:54.559Z,65
2023-10-14T21:24:25.381Z,65
2023-10-14T21:26:56.169Z,65
2023-10-14T21:29:25.790Z,65
2023-10-14T21:31:57.438Z,65
2023-10-14T21:34:31.180Z,66
2023-10-14T21:37:02.114Z,66
2023-10-14T21:39:33.181Z,66
2023-10-14T21:42:03.750Z,66
2023-10-14T21:44:34.613Z,65
2023-10-14T21:47:05.864Z,66
2023-10-14T21:49:36.704Z,66
2023-10-14T21:52:07.500Z,67
2023-10-14T21:54:37.816Z,67
2023-10-14T21:57:08.898Z,67
2023-10-14T21:59:39.796Z,67
2023-10-14T22:02:11.017Z,67
2023-10-14T22:04:42.040Z,67
2023-10-14T22:07:12.751Z,67
2023-10-14T22:09:43.840Z,67
2023-10-14T22:12:14.602Z,67
2023-10-14T22:14:45.568Z,67
2023-10-14T22:17:15.853Z,67
2023-10-14T22:19:46.757Z,67
2023-10-14T22:22:17.646Z,67
2023-10-14T22:24:48.786Z,67
2023-10-14T22:27:17.818Z,67
2023-10-14T22:29:48.637Z,67
2023-10-14T22:32:19.800Z,67
2023-10-14T22:34:50.638Z,67
2023-10-14T22:37:34.466Z,68
2023-10-14T22:39:52.207Z,68
2023-10-14T22:42:22.350Z,68
2023-10-14T22:44:53.170Z,68
2023-10-14T22:47:24.279Z,67
2023-10-14T22:49:55.013Z,68
2023-10-14T22:52:26.157Z,67
2023-10-14T22:54:57.229Z,67
2023-10-14T22:57:28.694Z,67
2023-10-14T22:59:59.609Z,67
2023-10-14T23:02:30.988Z,68
2023-10-14T23:05:02.136Z,68
2023-10-14T23:07:32.749Z,68
2023-10-14T23:10:03.591Z,68
2023-10-14T23:12:34.918Z,68
2023-10-14T23:15:05.965Z,68
2023-10-14T23:17:37.399Z,68
2023-10-14T23:20:07.708Z,68
2023-10-14T23:22:38.880Z,68
2023-10-14T23:25:09.818Z,68
2023-10-14T23:27:40.900Z,68
2023-10-14T23:30:11.500Z,68
2023-10-14T23:32:42.602Z,68
2023-10-14T23:35:13.654Z,68
2023-10-14T23:37:44.370Z,68
2023-10-14T23:40:16.693Z,68
2023-10-14T23:42:47.942Z,68
2023-10-14T23:45:18.909Z,68
2023-10-14T23:47:50.329Z,68
2023-10-14T23:50:21.543Z,69
2023-10-14T23:52:52.757Z,69
2023-10-14T23:55:23.423Z,69
2023-10-14T23:57:54.625Z,69
